createdAt,value
2017-12-16T00:00:23.434Z,20.86
2017-12-16T00:00:55.067Z,20.88
2017-12-16T00:01:26.803Z,20.87
2017-12-16T00:01:58.451Z,20.86
2017-12-16T00:02:30.395Z,20.86
2017-12-16T00:03:02.070Z,20.88
2017-12-16T00:03:33.986Z,20.88
2017-12-16T00:04:05.627Z,20.86
2017-12-16T00:04:37.271Z,20.87
2017-12-16T00:05:09.146Z,20.88
2017-12-16T00:05:40.778Z,20.88
2017-12-16T00:06:12.402Z,20.88
2017-12-16T00:06:44.144Z,20.87
2017-12-16T00:07:15.795Z,20.87
2017-12-16T00:07:47.662Z,20.86
2017-12-16T00:08:19.377Z,20.84
2017-12-16T00:08:51.016Z,20.86
2017-12-16T00:09:22.657Z,20.86
2017-12-16T00:09:54.300Z,20.88
2017-12-16T00:10:25.947Z,20.88
2017-12-16T00:10:57.583Z,20.91
2017-12-16T00:11:29.227Z,20.93
2017-12-16T00:12:00.871Z,20.93
2017-12-16T00:12:32.542Z,20.95
2017-12-16T00:13:04.171Z,20.98
2017-12-16T00:13:35.803Z,21.02
2017-12-16T00:14:07.434Z,21.03
2017-12-16T00:14:39.082Z,21.03
2017-12-16T00:15:10.707Z,21.00
2017-12-16T00:15:42.417Z,20.98
2017-12-16T00:16:14.016Z,20.92
2017-12-16T00:16:45.954Z,20.87
2017-12-16T00:17:17.593Z,20.87
2017-12-16T00:17:49.267Z,20.87
2017-12-16T00:18:20.891Z,20.87
2017-12-16T00:18:52.526Z,20.88
2017-12-16T00:19:24.163Z,20.84
2017-12-16T00:19:55.803Z,20.85
2017-12-16T00:20:27.451Z,20.88
2017-12-16T00:20:59.107Z,20.88
2017-12-16T00:21:30.735Z,20.88
2017-12-16T00:22:02.402Z,20.87
2017-12-16T00:22:34.031Z,20.88
2017-12-16T00:23:05.698Z,20.88
2017-12-16T00:23:37.323Z,20.87
2017-12-16T00:24:08.949Z,20.88
2017-12-16T00:24:40.814Z,20.89
2017-12-16T00:25:12.533Z,20.88
2017-12-16T00:25:44.174Z,20.86
2017-12-16T00:26:15.813Z,20.86
2017-12-16T00:26:47.458Z,20.87
2017-12-16T00:27:19.117Z,20.87
2017-12-16T00:27:50.747Z,20.87
2017-12-16T00:28:22.578Z,20.86
2017-12-16T00:28:54.201Z,20.86
2017-12-16T00:29:26.271Z,20.86
2017-12-16T00:29:57.920Z,20.87
2017-12-16T00:30:29.590Z,20.87
2017-12-16T00:31:01.214Z,20.86
2017-12-16T00:31:33.156Z,20.86
2017-12-16T00:32:04.782Z,20.88
2017-12-16T00:32:36.439Z,20.89
2017-12-16T00:33:08.082Z,20.92
2017-12-16T00:33:39.752Z,20.91
2017-12-16T00:34:11.378Z,20.90
2017-12-16T00:34:43.234Z,20.88
2017-12-16T00:35:14.862Z,20.88
2017-12-16T00:35:46.530Z,20.86
2017-12-16T00:36:18.152Z,20.88
2017-12-16T00:36:50.074Z,20.85
2017-12-16T00:37:21.832Z,20.85
2017-12-16T00:37:53.474Z,20.86
2017-12-16T00:38:25.116Z,20.85
2017-12-16T00:38:56.774Z,20.84
2017-12-16T00:39:28.406Z,20.84
2017-12-16T00:40:00.038Z,20.84
2017-12-16T00:40:31.711Z,20.81
2017-12-16T00:41:03.339Z,20.84
2017-12-16T00:41:34.971Z,20.84
2017-12-16T00:42:06.837Z,20.84
2017-12-16T00:42:38.507Z,20.85
2017-12-16T00:43:10.137Z,20.83
2017-12-16T00:43:41.767Z,20.83
2017-12-16T00:44:13.390Z,20.84
2017-12-16T00:44:45.126Z,20.83
2017-12-16T00:45:16.764Z,20.84
2017-12-16T00:45:48.405Z,20.82
2017-12-16T00:46:20.075Z,20.83
2017-12-16T00:46:51.738Z,20.84
2017-12-16T00:47:23.367Z,20.84
2017-12-16T00:47:54.989Z,20.84
2017-12-16T00:48:26.819Z,20.85
2017-12-16T00:48:58.568Z,20.85
2017-12-16T00:49:30.206Z,20.86
2017-12-16T00:50:01.852Z,20.86
2017-12-16T00:50:33.489Z,20.86
2017-12-16T00:51:05.154Z,20.84
2017-12-16T00:51:37.084Z,20.85
2017-12-16T00:52:08.725Z,20.85
2017-12-16T00:52:40.395Z,20.88
2017-12-16T00:53:12.023Z,20.87
2017-12-16T00:53:43.854Z,20.86
2017-12-16T00:54:15.601Z,20.84
2017-12-16T00:54:47.241Z,20.84
2017-12-16T00:55:18.885Z,20.82
2017-12-16T00:55:50.524Z,20.83
2017-12-16T00:56:22.166Z,20.84
2017-12-16T00:56:53.842Z,20.85
2017-12-16T00:57:25.474Z,20.85
2017-12-16T00:57:57.105Z,20.86
2017-12-16T00:58:28.914Z,20.85
2017-12-16T00:59:00.685Z,20.86
2017-12-16T00:59:32.324Z,20.84
2017-12-16T01:00:03.968Z,20.84
2017-12-16T01:00:35.616Z,20.85
2017-12-16T01:01:07.253Z,20.85
2017-12-16T01:01:38.895Z,20.84
2017-12-16T01:02:10.558Z,20.90
2017-12-16T01:02:42.451Z,20.90
2017-12-16T01:03:14.078Z,20.93
2017-12-16T01:03:45.710Z,20.95
2017-12-16T01:04:17.343Z,20.95
2017-12-16T01:04:48.971Z,20.96
2017-12-16T01:05:20.639Z,20.95
2017-12-16T01:05:52.262Z,20.94
2017-12-16T01:06:23.891Z,20.96
2017-12-16T01:06:55.553Z,20.95
2017-12-16T01:07:27.178Z,20.92
2017-12-16T01:07:58.801Z,20.93
2017-12-16T01:08:30.547Z,20.94
2017-12-16T01:09:02.207Z,20.96
2017-12-16T01:09:34.141Z,20.93
2017-12-16T01:10:05.777Z,20.90
2017-12-16T01:10:37.419Z,20.94
2017-12-16T01:11:09.061Z,20.95
2017-12-16T01:11:40.703Z,20.93
2017-12-16T01:12:12.345Z,20.91
2017-12-16T01:12:43.986Z,20.91
2017-12-16T01:13:15.938Z,20.92
2017-12-16T01:13:47.605Z,20.93
2017-12-16T01:14:19.234Z,20.94
2017-12-16T01:14:51.068Z,20.95
2017-12-16T01:15:22.814Z,20.94
2017-12-16T01:15:54.451Z,20.94
2017-12-16T01:16:26.094Z,20.90
2017-12-16T01:16:57.770Z,20.90
2017-12-16T01:17:29.398Z,20.91
2017-12-16T01:18:01.258Z,20.89
2017-12-16T01:18:32.890Z,20.90
2017-12-16T01:19:04.517Z,20.89
2017-12-16T01:19:36.256Z,20.89
2017-12-16T01:20:07.882Z,20.89
2017-12-16T01:20:39.510Z,20.89
2017-12-16T01:21:11.134Z,20.92
2017-12-16T01:21:42.762Z,20.93
2017-12-16T01:22:14.462Z,20.91
2017-12-16T01:22:46.107Z,20.93
2017-12-16T01:23:17.746Z,20.90
2017-12-16T01:23:49.391Z,20.91
2017-12-16T01:24:21.033Z,20.90
2017-12-16T01:24:52.862Z,20.89
2017-12-16T01:25:24.486Z,20.90
2017-12-16T01:25:56.119Z,20.91
2017-12-16T01:26:27.746Z,20.91
2017-12-16T01:26:59.370Z,20.90
2017-12-16T01:27:31.191Z,20.90
2017-12-16T01:28:02.836Z,20.90
2017-12-16T01:28:34.474Z,20.88
2017-12-16T01:29:06.114Z,20.89
2017-12-16T01:29:37.795Z,20.86
2017-12-16T01:30:09.418Z,20.86
2017-12-16T01:30:41.049Z,20.87
2017-12-16T01:31:12.684Z,20.85
2017-12-16T01:31:44.325Z,20.86
2017-12-16T01:32:15.965Z,20.86
2017-12-16T01:32:47.642Z,20.86
2017-12-16T01:33:19.262Z,20.87
2017-12-16T01:33:51.135Z,20.86
2017-12-16T01:34:22.763Z,20.85
2017-12-16T01:34:54.390Z,20.86
2017-12-16T01:35:26.126Z,20.85
2017-12-16T01:35:57.765Z,20.85
2017-12-16T01:36:29.409Z,20.85
2017-12-16T01:37:01.050Z,20.86
2017-12-16T01:37:32.695Z,20.85
2017-12-16T01:38:04.363Z,20.85
2017-12-16T01:38:35.991Z,20.84
2017-12-16T01:39:07.875Z,20.85
2017-12-16T01:39:39.874Z,20.85
2017-12-16T01:40:12.104Z,20.87
2017-12-16T01:40:43.734Z,20.85
2017-12-16T01:41:15.361Z,20.86
2017-12-16T01:41:46.982Z,20.86
2017-12-16T01:42:18.610Z,20.85
2017-12-16T01:42:50.342Z,20.87
2017-12-16T01:43:21.984Z,20.85
2017-12-16T01:43:53.870Z,20.84
2017-12-16T01:44:25.490Z,20.84
2017-12-16T01:44:57.217Z,20.85
2017-12-16T01:45:28.859Z,20.86
2017-12-16T01:46:00.501Z,20.87
2017-12-16T01:46:32.139Z,20.85
2017-12-16T01:47:03.767Z,20.85
2017-12-16T01:47:35.427Z,20.84
2017-12-16T01:48:07.068Z,20.83
2017-12-16T01:48:38.710Z,20.81
2017-12-16T01:49:10.374Z,20.83
2017-12-16T01:49:42.003Z,20.76
2017-12-16T01:50:13.944Z,20.85
2017-12-16T01:50:45.584Z,20.87
2017-12-16T01:51:18.418Z,20.86
2017-12-16T01:51:50.046Z,20.85
2017-12-16T01:52:21.682Z,20.84
2017-12-16T01:52:53.302Z,20.84
2017-12-16T01:53:24.925Z,20.85
2017-12-16T01:53:56.745Z,20.85
2017-12-16T01:54:28.422Z,20.84
2017-12-16T01:55:00.052Z,20.83
2017-12-16T01:55:31.871Z,20.85
2017-12-16T01:56:03.542Z,20.84
2017-12-16T01:56:35.219Z,20.85
2017-12-16T01:57:06.846Z,20.83
2017-12-16T01:57:38.470Z,20.83
2017-12-16T01:58:10.105Z,20.81
2017-12-16T01:58:42.074Z,20.81
2017-12-16T01:59:13.719Z,20.82
2017-12-16T01:59:45.346Z,20.82
2017-12-16T02:00:17.290Z,20.82
2017-12-16T02:00:48.938Z,20.84
2017-12-16T02:01:20.603Z,20.85
2017-12-16T02:01:52.235Z,20.86
2017-12-16T02:02:24.102Z,20.85
2017-12-16T02:02:55.730Z,20.84
2017-12-16T02:03:27.354Z,20.85
2017-12-16T02:03:59.090Z,20.86
2017-12-16T02:04:30.758Z,20.86
2017-12-16T02:05:03.116Z,20.86
2017-12-16T02:05:34.740Z,20.86
2017-12-16T02:06:06.566Z,20.87
2017-12-16T02:06:38.247Z,20.87
2017-12-16T02:07:09.878Z,20.87
2017-12-16T02:07:41.737Z,20.87
2017-12-16T02:08:13.362Z,20.85
2017-12-16T02:08:45.095Z,20.86
2017-12-16T02:09:16.936Z,20.83
2017-12-16T02:09:48.687Z,20.83
2017-12-16T02:10:20.327Z,20.83
2017-12-16T02:10:51.968Z,20.83
2017-12-16T02:11:24.497Z,20.84
2017-12-16T02:11:56.323Z,20.83
2017-12-16T02:12:27.951Z,20.82
2017-12-16T02:12:59.574Z,20.84
2017-12-16T02:13:31.409Z,20.84
2017-12-16T02:14:03.243Z,20.84
2017-12-16T02:14:35.000Z,20.82
2017-12-16T02:15:06.947Z,20.80
2017-12-16T02:15:38.591Z,20.82
2017-12-16T02:16:10.233Z,20.82
2017-12-16T02:16:41.873Z,20.79
2017-12-16T02:17:13.518Z,20.80
2017-12-16T02:17:45.156Z,20.81
2017-12-16T02:18:16.817Z,20.79
2017-12-16T02:18:48.682Z,20.81
2017-12-16T02:19:20.350Z,20.83
2017-12-16T02:19:51.988Z,20.83
2017-12-16T02:20:23.623Z,20.85
2017-12-16T02:20:55.245Z,20.85
2017-12-16T02:21:26.959Z,20.85
2017-12-16T02:21:58.598Z,20.87
2017-12-16T02:22:30.240Z,20.90
2017-12-16T02:23:01.885Z,20.88
2017-12-16T02:23:33.524Z,20.86
2017-12-16T02:24:05.168Z,20.85
2017-12-16T02:24:36.808Z,20.88
2017-12-16T02:25:08.495Z,20.86
2017-12-16T02:25:40.122Z,20.86
2017-12-16T02:26:11.751Z,20.84
2017-12-16T02:26:43.685Z,20.83
2017-12-16T02:27:15.328Z,20.83
2017-12-16T02:27:46.966Z,20.83
2017-12-16T02:28:19.002Z,20.85
2017-12-16T02:28:51.562Z,20.89
2017-12-16T02:29:24.053Z,20.88
2017-12-16T02:29:56.916Z,20.89
2017-12-16T02:30:29.631Z,20.89
2017-12-16T02:31:01.258Z,20.89
2017-12-16T02:31:32.887Z,20.89
2017-12-16T02:32:04.514Z,20.90
2017-12-16T02:32:36.182Z,20.88
2017-12-16T02:33:07.811Z,20.88
2017-12-16T02:33:39.442Z,20.88
2017-12-16T02:34:12.383Z,20.89
2017-12-16T02:34:44.017Z,20.90
2017-12-16T02:35:16.070Z,20.91
2017-12-16T02:35:47.697Z,20.90
2017-12-16T02:36:19.335Z,20.92
2017-12-16T02:36:50.962Z,20.88
2017-12-16T02:37:22.599Z,20.88
2017-12-16T02:37:54.310Z,20.87
2017-12-16T02:38:26.259Z,20.82
2017-12-16T02:38:57.890Z,20.82
2017-12-16T02:39:29.979Z,20.82
2017-12-16T02:40:01.606Z,20.83
2017-12-16T02:40:34.299Z,20.80
2017-12-16T02:41:05.934Z,20.81
2017-12-16T02:41:38.075Z,20.79
2017-12-16T02:42:09.702Z,20.77
2017-12-16T02:42:41.734Z,20.76
2017-12-16T02:43:13.751Z,20.76
2017-12-16T02:43:46.668Z,20.79
2017-12-16T02:44:18.327Z,20.80
2017-12-16T02:44:50.260Z,20.82
2017-12-16T02:45:22.833Z,20.85
2017-12-16T02:45:54.502Z,20.84
2017-12-16T02:46:27.275Z,20.82
2017-12-16T02:46:59.623Z,20.84
2017-12-16T02:47:31.254Z,20.81
2017-12-16T02:48:02.891Z,20.80
2017-12-16T02:48:34.716Z,20.80
2017-12-16T02:49:06.470Z,20.82
2017-12-16T02:49:38.112Z,20.82
2017-12-16T02:50:09.801Z,20.82
2017-12-16T02:50:41.421Z,20.83
2017-12-16T02:51:13.043Z,20.83
2017-12-16T02:51:44.675Z,20.80
2017-12-16T02:52:16.319Z,20.80
2017-12-16T02:52:47.963Z,20.80
2017-12-16T02:53:19.604Z,20.81
2017-12-16T02:53:51.247Z,20.82
2017-12-16T02:54:22.885Z,20.82
2017-12-16T02:54:54.530Z,20.80
2017-12-16T02:55:26.158Z,20.81
2017-12-16T02:55:57.815Z,20.81
2017-12-16T02:56:29.643Z,20.80
2017-12-16T02:57:01.335Z,20.80
2017-12-16T02:57:32.966Z,20.77
2017-12-16T02:58:04.595Z,20.78
2017-12-16T02:58:36.331Z,20.78
2017-12-16T02:59:07.971Z,20.76
2017-12-16T02:59:39.611Z,20.76
2017-12-16T03:00:11.248Z,20.75
2017-12-16T03:00:42.898Z,20.75
2017-12-16T03:01:14.537Z,20.76
2017-12-16T03:01:46.180Z,20.74
2017-12-16T03:02:17.832Z,20.74
2017-12-16T03:02:49.774Z,20.73
2017-12-16T03:03:21.398Z,20.75
2017-12-16T03:03:53.026Z,20.75
2017-12-16T03:04:24.655Z,20.74
2017-12-16T03:04:56.286Z,20.74
2017-12-16T03:05:27.918Z,20.73
2017-12-16T03:05:59.546Z,20.71
2017-12-16T03:06:31.210Z,20.73
2017-12-16T03:07:02.834Z,20.74
2017-12-16T03:07:34.458Z,20.74
2017-12-16T03:08:06.193Z,20.75
2017-12-16T03:08:37.837Z,20.74
2017-12-16T03:09:09.473Z,20.73
2017-12-16T03:09:41.118Z,20.73
2017-12-16T03:10:12.761Z,20.73
2017-12-16T03:10:44.433Z,20.76
2017-12-16T03:11:16.096Z,20.75
2017-12-16T03:11:47.923Z,20.74
2017-12-16T03:12:19.551Z,20.74
2017-12-16T03:12:51.183Z,20.75
2017-12-16T03:13:22.923Z,20.75
2017-12-16T03:13:54.561Z,20.74
2017-12-16T03:14:26.199Z,20.73
2017-12-16T03:14:57.843Z,20.73
2017-12-16T03:15:29.486Z,20.73
2017-12-16T03:16:01.310Z,20.75
2017-12-16T03:16:33.078Z,20.76
2017-12-16T03:17:04.719Z,20.74
2017-12-16T03:17:36.361Z,20.74
2017-12-16T03:18:08.000Z,20.76
2017-12-16T03:18:39.641Z,20.76
2017-12-16T03:19:11.283Z,20.75
2017-12-16T03:19:42.928Z,20.74
2017-12-16T03:20:14.567Z,20.76
2017-12-16T03:20:46.212Z,20.77
2017-12-16T03:21:17.843Z,20.76
2017-12-16T03:21:49.514Z,20.75
2017-12-16T03:22:21.141Z,20.76
2017-12-16T03:22:53.091Z,20.75
2017-12-16T03:23:24.729Z,20.76
2017-12-16T03:23:56.399Z,20.80
2017-12-16T03:24:28.026Z,20.78
2017-12-16T03:24:59.885Z,20.78
2017-12-16T03:25:31.517Z,20.77
2017-12-16T03:26:03.245Z,20.76
2017-12-16T03:26:34.887Z,20.78
2017-12-16T03:27:06.527Z,20.75
2017-12-16T03:27:38.194Z,20.75
2017-12-16T03:28:09.818Z,20.77
2017-12-16T03:28:41.481Z,20.76
2017-12-16T03:29:13.111Z,20.75
2017-12-16T03:29:44.778Z,20.77
2017-12-16T03:30:16.407Z,20.78
2017-12-16T03:30:48.031Z,20.76
2017-12-16T03:31:19.663Z,20.75
2017-12-16T03:31:51.305Z,20.77
2017-12-16T03:32:22.945Z,20.76
2017-12-16T03:32:54.623Z,20.76
2017-12-16T03:33:26.246Z,20.75
2017-12-16T03:33:58.181Z,20.76
2017-12-16T03:34:30.130Z,20.77
2017-12-16T03:35:01.772Z,20.79
2017-12-16T03:35:33.421Z,20.79
2017-12-16T03:36:05.053Z,20.81
2017-12-16T03:36:36.698Z,20.82
2017-12-16T03:37:08.338Z,20.82
2017-12-16T03:37:39.982Z,20.79
2017-12-16T03:38:11.663Z,20.77
2017-12-16T03:38:43.291Z,20.77
2017-12-16T03:39:14.920Z,20.75
2017-12-16T03:39:46.857Z,20.77
2017-12-16T03:40:18.498Z,20.75
2017-12-16T03:40:50.138Z,20.76
2017-12-16T03:41:21.798Z,20.75
2017-12-16T03:41:53.441Z,20.75
2017-12-16T03:42:25.373Z,20.76
2017-12-16T03:42:57.012Z,20.75
2017-12-16T03:43:28.686Z,20.75
2017-12-16T03:44:00.306Z,20.78
2017-12-16T03:44:31.939Z,20.79
2017-12-16T03:45:03.582Z,20.77
2017-12-16T03:45:35.225Z,20.78
2017-12-16T03:46:06.868Z,20.80
2017-12-16T03:46:38.510Z,20.82
2017-12-16T03:47:10.134Z,20.81
2017-12-16T03:47:41.763Z,20.77
2017-12-16T03:48:13.385Z,20.77
2017-12-16T03:48:45.078Z,20.78
2017-12-16T03:49:16.718Z,20.79
2017-12-16T03:49:48.357Z,20.80
2017-12-16T03:50:23.391Z,20.79
2017-12-16T03:50:55.038Z,20.80
2017-12-16T03:51:26.856Z,20.78
2017-12-16T03:51:58.482Z,20.77
2017-12-16T03:52:30.256Z,20.78
2017-12-16T03:53:01.896Z,20.75
2017-12-16T03:53:33.569Z,20.76
2017-12-16T03:54:05.195Z,20.76
2017-12-16T03:54:36.832Z,20.78
2017-12-16T03:55:08.696Z,20.79
2017-12-16T03:55:40.334Z,20.78
2017-12-16T03:56:11.958Z,20.79
2017-12-16T03:56:43.698Z,20.79
2017-12-16T03:57:15.338Z,20.79
2017-12-16T03:57:46.979Z,20.78
2017-12-16T03:58:18.621Z,20.78
2017-12-16T03:58:50.277Z,20.75
2017-12-16T03:59:21.946Z,20.75
2017-12-16T03:59:53.589Z,20.78
2017-12-16T04:00:25.217Z,20.78
2017-12-16T04:00:56.838Z,20.77
2017-12-16T04:01:28.467Z,20.77
2017-12-16T04:02:00.116Z,20.79
2017-12-16T04:02:31.756Z,20.80
2017-12-16T04:03:03.401Z,20.80
2017-12-16T04:03:35.350Z,20.86
2017-12-16T04:04:06.992Z,20.83
2017-12-16T04:04:38.654Z,20.84
2017-12-16T04:05:10.282Z,20.83
2017-12-16T04:05:41.915Z,20.83
2017-12-16T04:06:13.587Z,20.84
2017-12-16T04:06:45.219Z,20.83
2017-12-16T04:07:16.845Z,20.83
2017-12-16T04:07:48.483Z,20.82
2017-12-16T04:08:20.124Z,20.83
2017-12-16T04:08:51.766Z,20.82
2017-12-16T04:09:23.408Z,20.82
2017-12-16T04:09:55.052Z,20.82
2017-12-16T04:10:26.695Z,20.81
2017-12-16T04:10:58.336Z,20.80
2017-12-16T04:11:30.006Z,20.81
2017-12-16T04:12:01.631Z,20.80
2017-12-16T04:12:33.570Z,20.81
2017-12-16T04:13:05.211Z,20.81
2017-12-16T04:13:36.854Z,20.81
2017-12-16T04:14:08.492Z,20.80
2017-12-16T04:14:40.136Z,20.76
2017-12-16T04:15:11.776Z,20.78
2017-12-16T04:15:43.426Z,20.79
2017-12-16T04:16:15.094Z,20.79
2017-12-16T04:16:46.722Z,20.79
2017-12-16T04:17:18.349Z,20.77
2017-12-16T04:17:49.988Z,20.77
2017-12-16T04:18:21.628Z,20.78
2017-12-16T04:18:53.270Z,20.77
2017-12-16T04:19:24.899Z,20.79
2017-12-16T04:19:56.553Z,20.79
2017-12-16T04:20:28.197Z,20.77
2017-12-16T04:20:59.840Z,20.75
2017-12-16T04:21:31.521Z,20.77
2017-12-16T04:22:03.142Z,20.77
2017-12-16T04:22:35.015Z,20.78
2017-12-16T04:23:06.645Z,20.80
2017-12-16T04:23:38.275Z,20.81
2017-12-16T04:24:09.910Z,20.80
2017-12-16T04:24:41.646Z,20.81
2017-12-16T04:25:13.508Z,20.79
2017-12-16T04:25:45.135Z,20.80
2017-12-16T04:26:16.874Z,20.81
2017-12-16T04:26:48.541Z,20.79
2017-12-16T04:27:20.171Z,20.78
2017-12-16T04:27:52.001Z,20.76
2017-12-16T04:28:23.748Z,20.76
2017-12-16T04:28:55.387Z,20.76
2017-12-16T04:29:27.032Z,20.76
2017-12-16T04:29:58.662Z,20.74
2017-12-16T04:30:30.326Z,20.76
2017-12-16T04:31:02.266Z,20.73
2017-12-16T04:31:33.904Z,20.74
2017-12-16T04:32:05.546Z,20.72
2017-12-16T04:32:37.187Z,20.70
2017-12-16T04:33:08.830Z,20.73
2017-12-16T04:33:40.471Z,20.70
2017-12-16T04:34:12.143Z,20.73
2017-12-16T04:34:43.774Z,20.73
2017-12-16T04:35:15.605Z,20.72
2017-12-16T04:35:47.351Z,20.71
2017-12-16T04:36:18.989Z,20.68
2017-12-16T04:36:50.631Z,20.68
2017-12-16T04:37:22.272Z,20.69
2017-12-16T04:37:53.930Z,20.67
2017-12-16T04:38:25.606Z,20.70
2017-12-16T04:38:57.234Z,20.70
2017-12-16T04:39:28.854Z,20.68
2017-12-16T04:40:00.715Z,20.69
2017-12-16T04:40:32.337Z,20.68
2017-12-16T04:41:04.075Z,20.68
2017-12-16T04:41:35.714Z,20.70
2017-12-16T04:42:07.359Z,20.68
2017-12-16T04:42:39.001Z,20.68
2017-12-16T04:43:10.644Z,20.68
2017-12-16T04:43:42.335Z,20.68
2017-12-16T04:44:13.962Z,20.67
2017-12-16T04:44:45.587Z,20.66
2017-12-16T04:45:17.214Z,20.66
2017-12-16T04:45:48.849Z,20.64
2017-12-16T04:46:20.496Z,20.66
2017-12-16T04:46:52.133Z,20.64
2017-12-16T04:47:23.776Z,20.65
2017-12-16T04:47:55.417Z,20.65
2017-12-16T04:48:27.062Z,20.66
2017-12-16T04:48:58.730Z,20.64
2017-12-16T04:49:30.354Z,20.62
2017-12-16T04:50:01.988Z,20.63
2017-12-16T04:50:33.627Z,20.62
2017-12-16T04:51:05.269Z,20.62
2017-12-16T04:51:36.902Z,20.63
2017-12-16T04:52:08.555Z,20.65
2017-12-16T04:52:40.235Z,20.64
2017-12-16T04:53:11.858Z,20.64
2017-12-16T04:53:43.487Z,20.65
2017-12-16T04:54:15.430Z,20.65
2017-12-16T04:54:47.070Z,20.64
2017-12-16T04:55:18.715Z,20.63
2017-12-16T04:55:50.353Z,20.64
2017-12-16T04:56:21.995Z,20.65
2017-12-16T04:56:53.636Z,20.65
2017-12-16T04:57:25.282Z,20.65
2017-12-16T04:57:56.939Z,20.65
2017-12-16T04:58:28.571Z,20.66
2017-12-16T04:59:00.204Z,20.64
2017-12-16T04:59:31.848Z,20.66
2017-12-16T05:00:03.494Z,20.67
2017-12-16T05:00:35.132Z,20.65
2017-12-16T05:01:06.773Z,20.64
2017-12-16T05:01:38.443Z,20.67
2017-12-16T05:02:10.071Z,20.68
2017-12-16T05:02:41.972Z,20.65
2017-12-16T05:03:13.607Z,20.65
2017-12-16T05:03:45.230Z,20.67
2017-12-16T05:04:16.854Z,20.65
2017-12-16T05:04:48.538Z,20.65
2017-12-16T05:05:20.175Z,20.67
2017-12-16T05:05:51.802Z,20.65
2017-12-16T05:06:23.426Z,20.67
2017-12-16T05:06:55.058Z,20.69
2017-12-16T05:07:26.785Z,20.66
2017-12-16T05:07:58.425Z,20.68
2017-12-16T05:08:30.068Z,20.66
2017-12-16T05:09:01.710Z,20.65
2017-12-16T05:09:33.350Z,20.66
2017-12-16T05:10:05.023Z,20.67
2017-12-16T05:10:36.650Z,20.68
2017-12-16T05:11:08.523Z,20.68
2017-12-16T05:11:40.154Z,20.69
2017-12-16T05:12:11.784Z,20.70
2017-12-16T05:12:43.451Z,20.69
2017-12-16T05:13:15.074Z,20.71
2017-12-16T05:13:46.705Z,20.70
2017-12-16T05:14:18.342Z,20.71
2017-12-16T05:14:50.079Z,20.68
2017-12-16T05:15:21.720Z,20.72
2017-12-16T05:15:53.359Z,20.77
2017-12-16T05:16:25.039Z,20.77
2017-12-16T05:16:56.662Z,20.78
2017-12-16T05:17:28.595Z,20.80
2017-12-16T05:18:00.237Z,20.82
2017-12-16T05:18:32.187Z,20.83
2017-12-16T05:19:03.825Z,20.86
2017-12-16T05:19:35.470Z,20.84
2017-12-16T05:20:07.419Z,20.82
2017-12-16T05:20:39.058Z,20.82
2017-12-16T05:21:10.703Z,20.79
2017-12-16T05:21:42.373Z,20.79
2017-12-16T05:22:13.995Z,20.81
2017-12-16T05:22:45.936Z,20.81
2017-12-16T05:23:17.579Z,20.81
2017-12-16T05:23:49.217Z,20.80
2017-12-16T05:24:20.861Z,20.79
2017-12-16T05:24:52.501Z,20.77
2017-12-16T05:25:24.142Z,20.79
2017-12-16T05:25:55.784Z,20.80
2017-12-16T05:26:27.427Z,20.84
2017-12-16T05:26:59.130Z,20.81
2017-12-16T05:27:30.799Z,20.85
2017-12-16T05:28:02.662Z,20.83
2017-12-16T05:28:34.301Z,20.82
2017-12-16T05:29:05.942Z,20.84
2017-12-16T05:29:37.585Z,20.84
2017-12-16T05:30:09.229Z,20.84
2017-12-16T05:30:40.871Z,20.85
2017-12-16T05:31:12.550Z,20.86
2017-12-16T05:31:44.178Z,20.84
2017-12-16T05:32:15.802Z,20.87
2017-12-16T05:32:47.610Z,20.85
2017-12-16T05:33:19.234Z,20.83
2017-12-16T05:33:50.866Z,20.82
2017-12-16T05:34:22.494Z,20.83
2017-12-16T05:34:54.126Z,20.84
2017-12-16T05:35:25.759Z,20.85
2017-12-16T05:35:57.597Z,20.84
2017-12-16T05:36:29.282Z,20.85
2017-12-16T05:37:00.906Z,20.85
2017-12-16T05:37:32.541Z,20.87
2017-12-16T05:38:04.472Z,20.88
2017-12-16T05:38:36.116Z,20.87
2017-12-16T05:39:07.755Z,20.90
2017-12-16T05:39:39.396Z,20.90
2017-12-16T05:40:11.037Z,20.88
2017-12-16T05:40:42.679Z,20.87
2017-12-16T05:41:14.325Z,20.86
2017-12-16T05:41:46.005Z,20.85
2017-12-16T05:42:17.630Z,20.83
2017-12-16T05:42:49.266Z,20.80
2017-12-16T05:43:20.903Z,20.82
2017-12-16T05:43:52.776Z,20.81
2017-12-16T05:44:24.407Z,20.79
2017-12-16T05:44:56.029Z,20.80
2017-12-16T05:45:27.766Z,20.78
2017-12-16T05:45:59.411Z,20.78
2017-12-16T05:46:31.047Z,20.78
2017-12-16T05:47:02.719Z,20.78
2017-12-16T05:47:34.350Z,20.78
2017-12-16T05:48:06.283Z,20.76
2017-12-16T05:48:37.986Z,20.78
2017-12-16T05:49:09.587Z,20.78
2017-12-16T05:49:41.254Z,20.77
2017-12-16T05:50:12.886Z,20.80
2017-12-16T05:50:44.510Z,20.78
2017-12-16T05:51:16.142Z,20.80
2017-12-16T05:51:48.003Z,20.79
2017-12-16T05:52:19.630Z,20.75
2017-12-16T05:52:51.368Z,20.76
2017-12-16T05:53:23.030Z,20.76
2017-12-16T05:53:54.659Z,20.74
2017-12-16T05:54:26.600Z,20.72
2017-12-16T05:54:58.242Z,20.72
2017-12-16T05:55:29.880Z,20.73
2017-12-16T05:56:01.523Z,20.72
2017-12-16T05:56:33.167Z,20.71
2017-12-16T05:57:04.814Z,20.69
2017-12-16T05:57:36.442Z,20.69
2017-12-16T05:58:08.090Z,20.68
2017-12-16T05:58:39.754Z,20.67
2017-12-16T05:59:11.382Z,20.68
2017-12-16T05:59:43.019Z,20.70
2017-12-16T06:00:14.667Z,20.68
2017-12-16T06:00:46.527Z,20.70
2017-12-16T06:01:18.160Z,20.71
2017-12-16T06:01:49.822Z,20.70
2017-12-16T06:02:21.450Z,20.70
2017-12-16T06:02:53.204Z,20.71
2017-12-16T06:03:24.829Z,20.70
2017-12-16T06:03:56.771Z,20.68
2017-12-16T06:04:28.598Z,20.69
2017-12-16T06:05:00.226Z,20.69
2017-12-16T06:05:31.850Z,20.68
2017-12-16T06:06:03.474Z,20.68
2017-12-16T06:06:35.098Z,20.68
2017-12-16T06:07:06.871Z,20.66
2017-12-16T06:07:38.498Z,20.66
2017-12-16T06:08:10.122Z,20.66
2017-12-16T06:08:41.763Z,20.66
2017-12-16T06:09:13.494Z,20.64
2017-12-16T06:09:45.137Z,20.65
2017-12-16T06:10:16.775Z,20.64
2017-12-16T06:10:48.419Z,20.66
2017-12-16T06:11:20.063Z,20.65
2017-12-16T06:11:51.702Z,20.63
2017-12-16T06:12:23.590Z,20.63
2017-12-16T06:12:55.214Z,20.61
2017-12-16T06:13:26.939Z,20.64
2017-12-16T06:13:58.580Z,20.65
2017-12-16T06:14:30.437Z,20.65
2017-12-16T06:15:02.171Z,20.65
2017-12-16T06:15:33.816Z,20.64
2017-12-16T06:16:05.462Z,20.64
2017-12-16T06:16:37.097Z,20.65
2017-12-16T06:17:08.737Z,20.65
2017-12-16T06:17:40.406Z,20.66
2017-12-16T06:18:12.034Z,20.66
2017-12-16T06:18:43.971Z,20.68
2017-12-16T06:19:15.611Z,20.68
2017-12-16T06:19:47.252Z,20.68
2017-12-16T06:20:18.896Z,20.67
2017-12-16T06:20:50.849Z,20.67
2017-12-16T06:21:22.488Z,20.68
2017-12-16T06:21:54.130Z,20.68
2017-12-16T06:22:26.013Z,20.66
2017-12-16T06:22:57.639Z,20.65
2017-12-16T06:23:29.266Z,20.64
2017-12-16T06:24:01.007Z,20.66
2017-12-16T06:24:32.630Z,20.68
2017-12-16T06:25:04.285Z,20.67
2017-12-16T06:25:35.927Z,20.66
2017-12-16T06:26:07.569Z,20.67
2017-12-16T06:26:39.522Z,20.68
2017-12-16T06:27:11.159Z,20.68
2017-12-16T06:27:42.830Z,20.70
2017-12-16T06:28:14.462Z,20.69
2017-12-16T06:28:46.320Z,20.70
2017-12-16T06:29:17.943Z,20.71
2017-12-16T06:29:49.680Z,20.72
2017-12-16T06:30:21.351Z,20.73
2017-12-16T06:30:52.974Z,20.74
2017-12-16T06:31:24.631Z,20.73
2017-12-16T06:31:56.317Z,20.72
2017-12-16T06:32:27.911Z,20.74
2017-12-16T06:32:59.838Z,20.73
2017-12-16T06:33:31.477Z,20.76
2017-12-16T06:34:03.120Z,20.75
2017-12-16T06:34:34.763Z,20.73
2017-12-16T06:35:06.407Z,20.72
2017-12-16T06:35:38.051Z,20.73
2017-12-16T06:36:09.687Z,20.72
2017-12-16T06:36:41.327Z,20.73
2017-12-16T06:37:12.971Z,20.73
2017-12-16T06:37:44.615Z,20.74
2017-12-16T06:38:16.282Z,20.76
2017-12-16T06:38:47.910Z,20.74
2017-12-16T06:39:19.850Z,20.74
2017-12-16T06:39:51.487Z,20.74
2017-12-16T06:40:23.150Z,20.73
2017-12-16T06:40:54.781Z,20.75
2017-12-16T06:41:26.722Z,20.75
2017-12-16T06:41:58.362Z,20.73
2017-12-16T06:42:30.004Z,20.72
2017-12-16T06:43:01.648Z,20.73
2017-12-16T06:43:33.288Z,20.74
2017-12-16T06:44:04.929Z,20.74
2017-12-16T06:44:36.572Z,20.73
2017-12-16T06:45:08.218Z,20.74
2017-12-16T06:45:39.882Z,20.75
2017-12-16T06:46:11.514Z,20.74
2017-12-16T06:46:43.150Z,20.75
2017-12-16T06:47:14.837Z,20.77
2017-12-16T06:47:46.494Z,20.78
2017-12-16T06:48:18.128Z,20.79